Paul R Tregurtha — WYR4481 — position and weather

sailwx.info

Track history (hours):
 
Tides and Currents Weather Stations Pressure Air Temp Water Temp Dewpoint Dewpoint Depression Visibility Wind Speed Wind Dir Waves Ship Positions

Paul R Tregurtha

Owner: THE INTERLAKE STEAMSHIP COMPANY, Middleburg Heights, OH. More information available from US FCC via Universal Licensing System and Coast Guard Vessel Documentation Center.

Last reported at 2018-Jan-03 18:00 UTC. Time now 2018-Feb-20 07:39 UTC.
Position N 44°48' W 087°24'.
Warning: this ship's position is 47 days out of date.

Length 309 m; draft 7 m.

Type: Cargo ship. MMSI: 366904940.

Wind from 300 at 12 knots

Barometer 1015.0 mb
Air temperature -10.3 ° C
Water temperature 0.4 ° C

Date/timePositionNaut miles runAvg speedWind from/ knotsBaromVisibWave heightAir tempDewpointWater temp
2018-Jan-03 18:00N 44°48' W 087°24'0 0.0 300 / 121015.0 -10.3 0.4
2018-Jan-03 15:00N 44°48' W 087°24'0 0.0 340 / 161015.0 -10.9 0.2
2018-Jan-03 14:00N 44°48' W 087°24'4 4.3 330 / 141014.0 -10.5 0.2
2018-Jan-03 13:00N 44°48' W 087°18'0 0.0 290 / 71014.0 -11.0 0.2
2018-Jan-03 12:00N 44°48' W 087°18'0 0.0 310 / 141013.0 -11.1 0.3
2018-Jan-03 11:00N 44°48' W 087°18'0 0.0 300 / 151012.7 -11.0 0.3
2018-Jan-03 10:00N 44°48' W 087°18'0 0.0 280 / 161013.0 -11.9 0.3
2018-Jan-03 09:00N 44°48' W 087°18'0 0.0 280 / 151013.0 -12.1 0.3
2018-Jan-03 08:00N 44°48' W 087°18'0 0.0 260 / 161012.7 -11.9 0.2
2018-Jan-03 07:00N 44°48' W 087°18'0 0.0 250 / 141013.0 -12.0 0.2
2018-Jan-03 06:00N 44°48' W 087°18'0 0.0 250 / 141013.3 -12.2 0.2
2018-Jan-03 05:00N 44°48' W 087°18'0 0.0 260 / 121014.0 -12.4 0.2
2018-Jan-03 04:00N 44°48' W 087°18'0 0.0 250 / 161014.3 -11.9 0.2
2018-Jan-03 03:00N 44°48' W 087°18'0 0.0 260 / 161014.0 -11.7 0.3
2018-Jan-03 02:00N 44°48' W 087°18'0 0.0 250 / 211014.0 -11.6 0.4
2018-Jan-03 01:00N 44°48' W 087°18'1212.0 210 / 221015.4 -10.0 0.7
2018-Jan-03 00:00N 44°36' W 087°18'1312.7 250 / 231016.4 -9.2 2.3
2018-Jan-02 23:00N 44°24' W 087°24'1312.7 230 / 241018.8 -9.8 2.7
2018-Jan-02 22:00N 44°12' W 087°30'4 4.3 220 / 221019.8 -10.0 1.2
2018-Jan-02 21:00N 44°12' W 087°24'6 6.0 230 / 191020.4 -10.4 1.9
2018-Jan-02 20:00N 44°18' W 087°24'0 0.0 240 / 191021.5 -10.4 2.0
2018-Jan-02 19:00N 44°18' W 087°24'6 6.0 220 / 191023.8 -11.3 2.9
2018-Jan-02 18:00N 44°12' W 087°24'7 7.4 260 / 201025.2 -12.0 1.9
2018-Jan-02 17:00N 44°06' W 087°30'1312.8 270 / 221027.6 -13.7 0.7
2018-Jan-02 16:00N 43°54' W 087°36'6 6.0 250 / 221029.2 -14.4 0.5
2018-Jan-02 15:00N 43°48' W 087°36'1212.0 260 / 181029.9 -14.4 1.0
2018-Jan-02 14:00N 43°36' W 087°36'7 7.4 260 / 191031.3 -14.9 1.2
2018-Jan-02 13:00N 43°30' W 087°42'1212.0 320 / 181032.0 -15.6 2.1
2018-Jan-02 12:00N 43°18' W 087°42'1212.0 260 / 161033.0 -14.8 3.3
2018-Jan-02 11:00N 43°06' W 087°42'6 6.0 280 / 171034.0 -15.9 3.1
2018-Jan-02 10:00N 43°00' W 087°42'1312.8 290 / 191034.0 -14.3 2.7
2018-Jan-02 09:00N 42°48' W 087°36'6 6.0 280 / 151035.0 -16.1 2.4
2018-Jan-02 08:00N 42°42' W 087°36'1212.0 270 / 191035.7 -16.3 2.5
2018-Jan-02 07:00N 42°30' W 087°36'1212.0 270 / 201035.7 -16.0 2.1
2018-Jan-02 06:00N 42°18' W 087°36'19 9.3 290 / 171036.7 -15.4 2.6
2018-Jan-02 04:00N 42°00' W 087°30'6 6.0 280 / 171038.1 -17.3 0.5
2018-Jan-02 03:00N 41°54' W 087°30'1312.8 260 / 141038.4 -17.4 0.2
2018-Jan-02 02:00N 41°42' W 087°24'0 0.0 260 / 141039.1 -19.0 0.2
2018-Jan-02 01:00N 41°42' W 087°24'0 0.0 280 / 111039.1 -18.8 1.4
2018-Jan-02 00:00N 41°42' W 087°24'0 0.0 240 / 111039.1 -18.3 1.1
2018-Jan-01 23:00N 41°42' W 087°24'0 0.0 230 / 61039.1 -17.4 1.2
2018-Jan-01 22:00N 41°42' W 087°24'0 0.0 250 / 111038.4 -16.2 1.1
2018-Jan-01 21:00N 41°42' W 087°24'0 0.0 250 / 121038.4 -16.0 1.1
2018-Jan-01 20:00N 41°42' W 087°24'0 0.0 230 / 61038.4 -15.2 1.1
2018-Jan-01 19:00N 41°42' W 087°24'0 0.0 250 / 111038.4 -16.3 1.1
2018-Jan-01 18:00N 41°42' W 087°24'0 0.0 290 / 101038.7 -17.2 1.1
2018-Jan-01 17:00N 41°42' W 087°24'0 0.0 260 / 131039.1 -18.5 1.2
2018-Jan-01 16:00N 41°42' W 087°24'0 0.0 260 / 131039.7 -19.7 1.3
2018-Jan-01 15:00N 41°42' W 087°24'0 0.0 240 / 121038.7 -21.0 1.4
2018-Jan-01 14:00N 41°42' W 087°24'0 0.0 250 / 121038.4 -21.4 1.5
2018-Jan-01 13:00N 41°42' W 087°24'0 0.0 250 / 141038.4 -20.7 1.6
2018-Jan-01 12:00N 41°42' W 087°24'0 0.0 250 / 141037.7 -20.3 1.7
2018-Jan-01 11:00N 41°42' W 087°24'0 0.0 270 / 111037.7 -19.8 1.8
2018-Jan-01 10:00N 41°42' W 087°24'0 0.0 280 / 141037.4 -18.8 1.9
2018-Jan-01 09:00N 41°42' W 087°24'0 0.0 260 / 141037.4 -18.1 1.9
2018-Jan-01 07:00N 41°42' W 087°24'0 0.0 260 / 151037.4 -17.0 2.0
2018-Jan-01 06:00N 41°42' W 087°24'0 0.0 250 / 121036.7 -16.4 2.1
2018-Jan-01 05:00N 41°42' W 087°24'0 0.0 270 / 151036.7 -15.5 2.2
2018-Jan-01 04:00N 41°42' W 087°24'0 0.0 290 / 141036.4 -14.6 2.3
2018-Jan-01 03:00N 41°42' W 087°24'0 0.0 280 / 121036.0 -13.8 2.0
2018-Jan-01 02:00N 41°42' W 087°24'0 0.0 300 / 181035.7 -13.1 2.0
2018-Jan-01 01:00N 41°42' W 087°24'0 0.0 310 / 161035.3 -11.9 1.7
2018-Jan-01 00:00N 41°42' W 087°24'0 0.0 310 / 131035.0 -11.1 1.8
2017-Dec-31 23:00N 41°42' W 087°24'7 7.5 280 / 161034.3 -10.4 0.4
2017-Dec-31 22:00N 41°48' W 087°30'1212.0 320 / 181034.0 -9.6 0.3
2017-Dec-31 21:00N 42°00' W 087°30'6012.0 320 / 181033.3 -8.0 2.3
2017-Dec-31 16:00N 43°00' W 087°36'1312.8 330 / 231033.3 5.4 -9.7 4.0
2017-Dec-31 15:00N 43°12' W 087°42'1212.0 330 / 221033.0 -11.0 4.0
2017-Dec-31 14:00N 43°24' W 087°42'1312.8 350 / 201032.6 -12.5 3.4
2017-Dec-31 13:00N 43°36' W 087°36'1312.8 340 / 191032.0 -11.9 2.2
2017-Dec-31 12:00N 43°48' W 087°30'1212.0 340 / 201032.0 -11.4 2.1
2017-Dec-31 11:00N 44°00' W 087°30'1312.8 340 / 211032.0 -12.6 2.4
2017-Dec-31 10:00N 44°12' W 087°24'1312.7 350 / 251030.9 -11.2 3.0
2017-Dec-31 09:00N 44°24' W 087°18'1312.7 350 / 221031.3 -11.1 4.5
2017-Dec-31 08:00N 44°36' W 087°12'1312.7 350 / 191031.6 -11.5 3.9
2017-Dec-31 07:00N 44°48' W 087°06'1514.7 350 / 211030.6 -11.5 4.2
2017-Dec-31 06:00N 45°00' W 086°54'1312.7 360 / 201029.9 -10.6 5.0
2017-Dec-31 05:00N 45°12' W 086°48'1010.4 340 / 191029.6 -10.0 4.0
2017-Dec-31 04:00N 45°18' W 086°36'1312.7 1028.910.8 -10.3 3.3
2017-Dec-31 03:00N 45°30' W 086°30'1514.6 010 / 151028.2 -10.2 4.5
2017-Dec-31 02:00N 45°42' W 086°18'8 8.4 1027.6 -10.4 5.2
2017-Dec-31 01:00N 45°42' W 086°06'1416.3 360 / 211026.9 -10.6 5.1
2017-Dec-31 00:09N 45°49' W 085°49'212.2
2017-Dec-31 00:01N 45°50' W 085°47'2112.0
2017-Dec-31 00:00N 45°48' W 085°48'815.8 030 / 221025.9 -11.5 2.9
2017-Dec-30 23:31N 45°52' W 085°39'611.6
2017-Dec-30 23:01N 45°54' W 085°31'135.0
2017-Dec-30 23:00N 45°54' W 085°30'610.4 350 / 151025.2 -12.9 0.5
2017-Dec-30 22:26N 45°53' W 085°22'410.5
2017-Dec-30 22:01N 45°53' W 085°15'2132.3
2017-Dec-30 22:00N 45°54' W 085°18'714.9 1023.5 -13.6 0.6
2017-Dec-30 21:31N 45°52' W 085°08'611.4
2017-Dec-30 21:01N 45°51' W 085°00'3181.1
2017-Dec-30 21:00N 45°54' W 085°00'714.4 020 / 81022.1 -11.6 0.6
2017-Dec-30 20:30N 45°50' W 084°51'611.5
2017-Dec-30 20:00N 45°49' W 084°44'1123.8
2017-Dec-30 20:00N 45°48' W 084°42'4 7.9 020 / 71021.8 -12.7 0.7
2017-Dec-30 19:31N 45°50' W 084°38'610.9
2017-Dec-30 19:00N 45°52' W 084°30'2382.3
2017-Dec-30 19:00N 45°54' W 084°30'612.7 050 / 71020.1 -12.5 1.4
2017-Dec-30 18:31N 45°53' W 084°21'612.4
2017-Dec-30 18:01N 45°53' W 084°13'143.0
2017-Dec-30 18:00N 45°54' W 084°12'1312.5 020 / 101019.8 -12.7 1.9
2017-Dec-30 17:00N 45°54' W 083°54'7 7.3 040 / 171019.8 -14.9 0.5
2017-Dec-30 16:00N 46°00' W 084°00'1212.0 050 / 91019.8 -16.4 0.3
2017-Dec-30 15:00N 46°12' W 084°00'8 8.3 300 / 21019.4 -17.1 0.2
2017-Dec-30 14:00N 46°12' W 084°12'6 6.0 010 / 61019.1 -17.7 0.1
2017-Dec-30 13:00N 46°18' W 084°12'7 7.3 350 / 61018.4 -17.4 0.2
2017-Dec-30 12:00N 46°24' W 084°18'6 6.0 340 / 31017.7 -18.6 0.2
2017-Dec-30 11:00N 46°30' W 084°18'4 4.1 060 / 31017.4 -17.6 0.2
2017-Dec-30 10:00N 46°30' W 084°24'0 0.0 060 / 31018.3 -17.2 0.2
2017-Dec-30 09:00N 46°30' W 084°24'0 0.0 080 / 61017.6 -16.5 0.2
2017-Dec-30 08:00N 46°30' W 084°24'0 0.0 100 / 31017.9 -16.5 0.2
2017-Dec-30 07:00N 46°30' W 084°24'4 4.1 080 / 31017.9 -16.8 0.6
2017-Dec-30 06:00N 46°30' W 084°30'6 6.0 050 / 41018.3 -15.8 0.6
2017-Dec-30 05:00N 46°24' W 084°30'1514.6 100 / 61018.6 -15.4 0.8
2017-Dec-30 04:00N 46°36' W 084°42'1010.2 150 / 71018.6 -10.7 1.0
2017-Dec-30 03:00N 46°42' W 084°54'1010.2 140 / 51019.0 -9.5 1.0
2017-Dec-30 02:00N 46°48' W 085°06'1212.3 210 / 91020.0 -10.4 1.7
2017-Dec-30 01:00N 46°48' W 085°24'1212.3 180 / 61020.7 -10.1 1.6
2017-Dec-30 00:00N 46°48' W 085°42'1212.3 230 / 101021.0 -10.3 2.5
2017-Dec-29 23:00N 46°48' W 086°00'1212.3 200 / 121021.0 -10.5 2.7
2017-Dec-29 22:00N 46°48' W 086°18'1413.7 190 / 111021.3 -9.8 3.7
2017-Dec-29 21:00N 46°42' W 086°36'1212.3 200 / 81021.0 -9.7 3.6
2017-Dec-29 20:00N 46°42' W 086°54'3912.9 220 / 71021.0 -9.4 3.6
2017-Dec-29 17:00N 47°12' W 087°30'1414.5 280 / 121022.0 -8.4 1.9
2017-Dec-29 16:00N 47°24' W 087°42'7 7.2 260 / 161022.4 -10.3 1.1
2017-Dec-29 15:00N 47°30' W 087°48'1413.5 210 / 91022.0 -10.4 2.6
2017-Dec-29 14:00N 47°36' W 088°06'1212.1 210 / 41022.0 -9.6 3.5
2017-Dec-29 13:00N 47°36' W 088°24'1212.1 170 / 61021.7 -10.1 3.6
2017-Dec-29 12:00N 47°36' W 088°42'1413.5 140 / 71021.3 -9.7 3.6
2017-Dec-29 11:00N 47°30' W 089°00'1212.2 080 / 81021.0 -9.1 3.6
2017-Dec-29 10:00N 47°30' W 089°18'1413.6 200 / 91022.0 -8.7 3.7
2017-Dec-29 09:00N 47°24' W 089°36'1212.2 280 / 71022.7 -8.5 3.6
2017-Dec-29 08:00N 47°24' W 089°54'1413.6 280 / 61022.7 -9.5 3.2
2017-Dec-29 07:00N 47°18' W 090°12'1212.2 280 / 151023.7 -9.9 2.9
2017-Dec-29 06:00N 47°18' W 090°30'1010.1 280 / 131024.4 -10.6 2.3
2017-Dec-29 05:00N 47°12' W 090°42'1212.2 250 / 111025.4 -11.5 2.9
2017-Dec-29 04:00N 47°12' W 091°00'1413.6 290 / 141025.7 -12.8 3.3
2017-Dec-29 03:00N 47°06' W 091°18'1413.7 310 / 151026.4 -13.6 2.9
2017-Dec-29 02:00N 47°00' W 091°36'2 9.8 290 / 121027.4 -15.1 3.1
2017-Dec-29 01:48N 47°00' W 091°39'1 3.9
2017-Dec-29 01:30N 47°01' W 091°40'1 2.9
2017-Dec-29 01:00N 47°00' W 091°42'1 3.6 290 / 51027.8 -17.1 2.1
2017-Dec-29 00:36N 47°01' W 091°40'0 0.0
2017-Dec-29 00:08N 47°01' W 091°40'1 9.8
2017-Dec-29 00:00N 47°00' W 091°42'0 0.0 300 / 41028.1 -15.7 2.1
2017-Dec-28 23:00N 47°00' W 091°42'0 0.0 270 / 51028.4 -15.5 2.2
2017-Dec-28 22:00N 47°00' W 091°42'0 0.0 300 / 51028.1 -14.8 2.0
2017-Dec-28 21:00N 47°00' W 091°42'0 0.0 280 / 61028.1 -14.6 1.9
2017-Dec-28 20:00N 47°00' W 091°42'0 0.0 300 / 31028.4 -14.6 1.8
2017-Dec-28 19:00N 47°00' W 091°42'0 0.0 050 / 41029.5 -13.9 1.8
2017-Dec-28 18:00N 47°00' W 091°42'0 0.0 210 / 71031.2 -14.3 1.9
2017-Dec-28 17:00N 47°00' W 091°42'1 7.2 220 / 91032.2 -14.2 2.0
2017-Dec-28 16:47N 47°01' W 091°40'0 0.0
2017-Dec-28 16:29N 47°01' W 091°40'1 2.9
2017-Dec-28 16:00N 47°00' W 091°42'126.7 230 / 101032.8 -13.9 2.0
2017-Dec-28 15:56N 47°01' W 091°40'0 0.0
2017-Dec-28 15:17N 47°01' W 091°40'1 4.8
2017-Dec-28 15:00N 47°00' W 091°42'1 9.4 210 / 101032.8 -14.6 2.4
2017-Dec-28 14:50N 47°01' W 091°40'0 0.0
2017-Dec-28 14:29N 47°01' W 091°40'1 2.9
2017-Dec-28 14:00N 47°00' W 091°42'1 9.4 210 / 81033.2 -15.1 2.4
2017-Dec-28 13:50N 47°01' W 091°40'0 0.0
2017-Dec-28 13:20N 47°01' W 091°40'1 4.2
2017-Dec-28 13:00N 47°00' W 091°42'114.2 220 / 91033.5 -14.8 2.6
2017-Dec-28 12:53N 47°01' W 091°40'0 0.0
2017-Dec-28 12:23N 47°01' W 091°40'1 3.6
2017-Dec-28 12:00N 47°00' W 091°42'1 2.4 040 / 11034.5 -16.6 2.6
2017-Dec-28 11:23N 47°01' W 091°40'1 3.6
2017-Dec-28 11:00N 47°00' W 091°42'114.2 340 / 61035.6 -17.5 2.7
2017-Dec-28 10:53N 47°01' W 091°40'0 0.0
2017-Dec-28 10:23N 47°01' W 091°40'1 3.6
2017-Dec-28 10:00N 47°00' W 091°42'113.8 330 / 71036.2 -17.4 2.6
2017-Dec-28 09:53N 47°01' W 091°40'0 0.0
2017-Dec-28 09:26N 47°01' W 091°40'1 3.2
2017-Dec-28 09:00N 47°00' W 091°42'126.9 340 / 81036.6 -18.3 2.6
2017-Dec-28 08:56N 47°01' W 091°40'0 0.0
2017-Dec-28 08:23N 47°01' W 091°40'1 3.7
2017-Dec-28 08:00N 47°00' W 091°42'127.0 330 / 91036.6 -18.8 2.6
2017-Dec-28 07:56N 47°01' W 091°40'0 0.0
2017-Dec-28 07:26N 47°01' W 091°40'1 3.2
2017-Dec-28 07:00N 47°00' W 091°42'127.1 330 / 91037.3 -18.6 2.6
2017-Dec-28 06:56N 47°01' W 091°40'0 0.0
2017-Dec-28 06:26N 47°01' W 091°40'1 3.2
2017-Dec-28 06:00N 47°00' W 091°42'1473.0 330 / 101037.6 -19.0 2.5
2017-Dec-28 05:59N 47°01' W 091°40'0 0.0
2017-Dec-28 05:29N 47°01' W 091°40'1 2.9
2017-Dec-28 05:00N 47°00' W 091°42'126.7 340 / 111038.3 -18.9 2.3
2017-Dec-28 04:56N 47°01' W 091°40'0 0.0
2017-Dec-28 04:29N 47°01' W 091°40'1 2.9
2017-Dec-28 04:00N 47°00' W 091°42'1 5.7 340 / 81037.6 -19.4 2.2
2017-Dec-28 03:44N 47°01' W 091°40'0 0.0
2017-Dec-28 03:29N 47°01' W 091°40'1 2.9
2017-Dec-28 03:00N 47°00' W 091°42'126.8 350 / 81037.9 -20.1 2.2
2017-Dec-28 02:56N 47°01' W 091°40'0 0.0
2017-Dec-28 02:29N 47°01' W 091°40'1 2.9
2017-Dec-28 02:00N 47°00' W 091°42'1325.2 340 / 81038.6 -20.2 2.1
2017-Dec-28 01:59N 47°01' W 091°40'0 0.0
2017-Dec-28 01:29N 47°01' W 091°40'1 2.9
2017-Dec-28 01:00N 47°00' W 091°42'1 5.7 330 / 91038.6 -20.3 2.1
2017-Dec-28 00:44N 47°01' W 091°40'0 0.0
2017-Dec-28 00:29N 47°01' W 091°40'1 2.9
2017-Dec-28 00:00N 47°00' W 091°42'1434.6 340 / 91038.6 -19.4 2.1
2017-Dec-27 23:59N 47°01' W 091°40'0 0.0
2017-Dec-27 23:17N 47°01' W 091°40'1 4.9
2017-Dec-27 23:00N 47°00' W 091°42'1 9.4 340 / 81038.6 -18.4 1.9
2017-Dec-27 22:50N 47°01' W 091°40'0 0.0
2017-Dec-27 22:20N 47°01' W 091°40'1 4.2
2017-Dec-27 22:00N 47°00' W 091°42'1 9.4 300 / 61038.9 -17.1 1.9
2017-Dec-27 21:50N 47°01' W 091°40'0 0.0
2017-Dec-27 21:23N 47°01' W 091°40'1 3.7
2017-Dec-27 21:00N 47°00' W 091°42'114.0 240 / 41038.9 -16.0 1.8
2017-Dec-27 20:53N 47°01' W 091°40'1 1.6
2017-Dec-27 20:00N 47°00' W 091°42'0 0.0 300 / 41038.9 -17.1 1.7
2017-Dec-27 19:00N 47°00' W 091°42'0 0.0 320 / 51039.3 -18.1 1.7
2017-Dec-27 18:00N 47°00' W 091°42'0 0.0 330 / 41040.0 -19.9 1.7
2017-Dec-27 17:00N 47°00' W 091°42'0 0.0 330 / 61040.6 -21.5 1.8
2017-Dec-27 16:00N 47°00' W 091°42'1 2.6 280 / 31041.0 -24.3 1.9
2017-Dec-27 15:26N 47°01' W 091°40'1 3.3
2017-Dec-27 15:00N 47°00' W 091°42'1 5.7 290 / 31040.6 -26.3 1.9
2017-Dec-27 14:44N 47°01' W 091°40'0 0.0
2017-Dec-27 14:29N 47°01' W 091°40'0 0.0
2017-Dec-27 13:32N 47°01' W 091°40'0 0.0
2017-Dec-27 12:26N 47°01' W 091°40'1 3.2
2017-Dec-27 12:00N 47°00' W 091°42'1 2.0 330 / 111038.3 -26.5 2.4
2017-Dec-27 11:17N 47°01' W 091°40'1 0.7
2017-Dec-27 10:29N 47°00' W 091°40'1 1.8
2017-Dec-27 10:00N 46°60' W 091°41'1 1.5
2017-Dec-27 09:25N 47°00' W 091°40'0 0.2
2017-Dec-27 08:55N 47°00' W 091°40'0 0.0
2017-Dec-27 08:25N 47°00' W 091°40'0 0.1
2017-Dec-27 07:55N 47°00' W 091°40'0 0.0
2017-Dec-27 07:28N 47°00' W 091°40'0 0.0
2017-Dec-27 06:58N 47°00' W 091°40'0 0.0
2017-Dec-27 06:28N 47°00' W 091°40'0 0.0
2017-Dec-27 05:55N 47°00' W 091°40'0 0.0
2017-Dec-27 05:28N 47°00' W 091°40'0 0.0
2017-Dec-27 04:58N 47°00' W 091°40'0 0.1
2017-Dec-27 04:25N 47°00' W 091°40'0 0.1
2017-Dec-27 03:58N 47°00' W 091°40'0 0.1
2017-Dec-27 03:28N 47°00' W 091°40'0 0.1
2017-Dec-27 02:58N 47°00' W 091°40'0 0.1
2017-Dec-27 02:28N 47°00' W 091°40'0 0.0
2017-Dec-27 01:58N 47°00' W 091°40'0 0.0
2017-Dec-27 01:28N 47°00' W 091°40'0 0.0
2017-Dec-27 00:34N 47°00' W 091°40'0 0.0
2017-Dec-27 00:16N 47°00' W 091°40'0 0.1
2017-Dec-26 23:58N 47°00' W 091°40'0 0.0
2017-Dec-26 23:16N 47°00' W 091°40'0 0.0
2017-Dec-26 22:49N 47°00' W 091°40'0 0.1
2017-Dec-26 22:22N 47°00' W 091°40'0 0.1
2017-Dec-26 21:52N 47°00' W 091°40'0 0.0
2017-Dec-26 21:22N 47°00' W 091°40'0 0.1
2017-Dec-26 20:52N 47°00' W 091°40'0 0.2
2017-Dec-26 20:30N 47°00' W 091°40'3 2.9
2017-Dec-26 19:22N 46°57' W 091°40'1 1.7
2017-Dec-26 19:00N 46°57' W 091°41'1 2.9
2017-Dec-26 18:30N 46°58' W 091°39'1 2.3
2017-Dec-26 17:56N 46°59' W 091°38'3 2.6
2017-Dec-26 16:55N 46°57' W 091°41'1 1.9
2017-Dec-26 16:31N 46°57' W 091°40'2 3.1
2017-Dec-26 15:58N 46°58' W 091°38'1 1.0
2017-Dec-26 15:20N 46°58' W 091°39'1 3.4
2017-Dec-26 15:00N 46°57' W 091°40'1 1.9
2017-Dec-26 14:30N 46°57' W 091°41'2 3.1
2017-Dec-26 14:00N 46°58' W 091°40'2 3.3
2017-Dec-26 13:28N 46°59' W 091°38'2 3.2
2017-Dec-26 13:00N 47°01' W 091°37'2 3.3
2017-Dec-26 12:30N 47°02' W 091°35'2 3.3
2017-Dec-26 12:00N 47°03' W 091°33'2 3.3
2017-Dec-26 11:30N 47°04' W 091°31'2 3.4
2017-Dec-26 11:00N 47°05' W 091°29'2 3.5
2017-Dec-26 10:30N 47°06' W 091°27'56 3.6
2017-Dec-25 19:00N 47°42' W 090°24'8 4.0 310 / 321020.3 -22.7 4.2
2017-Dec-25 17:00N 47°42' W 090°12'4 4.0 320 / 491019.3 -22.5 4.1
2017-Dec-25 16:00N 47°42' W 090°06'6 6.0 210 / 401019.6 -22.4 4.0
2017-Dec-25 15:00N 47°48' W 090°06'8 8.1 330 / 261019.0 -22.8 4.0
2017-Dec-25 14:00N 47°48' W 089°54'4 4.0 320 / 201017.6 -21.3 3.9
2017-Dec-25 13:00N 47°48' W 089°48'7 7.2 330 / 161016.6 -20.4 4.0
2017-Dec-25 12:00N 47°54' W 089°42'8 8.0 360 / 141016.3 -18.9 4.2
2017-Dec-25 11:00N 47°54' W 089°30'1010.0 340 / 121015.6 -18.5 4.3
2017-Dec-25 10:00N 47°48' W 089°18'8 8.1 010 / 151015.2 -17.7 4.2
2017-Dec-25 09:00N 47°48' W 089°06'1010.0 340 / 161014.9 -17.2 3.7
2017-Dec-25 08:00N 47°54' W 088°54'8 8.0 340 / 221014.9 -16.2 3.5
2017-Dec-25 07:00N 47°54' W 088°42'7 7.2 350 / 211013.5 -14.2 4.3
2017-Dec-25 06:00N 47°48' W 088°36'1010.1 340 / 201012.9 -13.2 4.2
2017-Dec-25 05:00N 47°42' W 088°24'1010.1 340 / 191012.5 -11.3 4.2
2017-Dec-25 04:00N 47°36' W 088°12'1413.5 1010.8 -7.8 4.3
2017-Dec-25 03:00N 47°30' W 087°54'1212.2 050 / 101012.2 -7.5 3.1
2017-Dec-25 02:00N 47°30' W 087°36'1413.6 060 / 81013.2 -7.9 2.6
2017-Dec-25 01:00N 47°24' W 087°18'1413.6 040 / 51013.9 -7.3 4.2
2017-Dec-25 00:00N 47°18' W 087°00'1212.2 020 / 61014.2 -7.3 4.4
2017-Dec-24 23:00N 47°18' W 086°42'1010.1 010 / 111014.2 -7.1 4.5
2017-Dec-24 22:00N 47°12' W 086°30'1413.6 320 / 111014.6 -6.6 4.7
2017-Dec-24 21:00N 47°06' W 086°12'   1014.6 -5.8 4.7
Track history (hours):
 
Tides and Currents Weather Stations Pressure Air Temp Water Temp Dewpoint Dewpoint Depression Visibility Wind Speed Wind Dir Waves Ship Positions

Paul R Tregurtha

Owner: THE INTERLAKE STEAMSHIP COMPANY, Middleburg Heights, OH. More information available from US FCC via Universal Licensing System and Coast Guard Vessel Documentation Center.

Last reported at 2018-Jan-03 18:00 UTC. Time now 2018-Feb-20 07:40 UTC.
Position N 44°48' W 087°24'.
Warning: this ship's position is 47 days out of date.

Length 309 m; draft 7 m.

Type: Cargo ship. MMSI: 366904940.

Wind from 300 at 12 knots

Barometer 1015.0 mb
Air temperature -10.3 ° C
Water temperature 0.4 ° C

Date/timePositionNaut miles runAvg speedWind from/ knotsBaromVisibWave heightAir tempDewpointWater temp
2018-Jan-03 18:00N 44°48' W 087°24'0 0.0 300 / 121015.0 -10.3 0.4
2018-Jan-03 15:00N 44°48' W 087°24'0 0.0 340 / 161015.0 -10.9 0.2
2018-Jan-03 14:00N 44°48' W 087°24'4 4.3 330 / 141014.0 -10.5 0.2
2018-Jan-03 13:00N 44°48' W 087°18'0 0.0 290 / 71014.0 -11.0 0.2
2018-Jan-03 12:00N 44°48' W 087°18'0 0.0 310 / 141013.0 -11.1 0.3
2018-Jan-03 11:00N 44°48' W 087°18'0 0.0 300 / 151012.7 -11.0 0.3
2018-Jan-03 10:00N 44°48' W 087°18'0 0.0 280 / 161013.0 -11.9 0.3
2018-Jan-03 09:00N 44°48' W 087°18'0 0.0 280 / 151013.0 -12.1 0.3
2018-Jan-03 08:00N 44°48' W 087°18'0 0.0 260 / 161012.7 -11.9 0.2
2018-Jan-03 07:00N 44°48' W 087°18'0 0.0 250 / 141013.0 -12.0 0.2
2018-Jan-03 06:00N 44°48' W 087°18'0 0.0 250 / 141013.3 -12.2 0.2
2018-Jan-03 05:00N 44°48' W 087°18'0 0.0 260 / 121014.0 -12.4 0.2
2018-Jan-03 04:00N 44°48' W 087°18'0 0.0 250 / 161014.3 -11.9 0.2
2018-Jan-03 03:00N 44°48' W 087°18'0 0.0 260 / 161014.0 -11.7 0.3
2018-Jan-03 02:00N 44°48' W 087°18'0 0.0 250 / 211014.0 -11.6 0.4
2018-Jan-03 01:00N 44°48' W 087°18'1212.0 210 / 221015.4 -10.0 0.7
2018-Jan-03 00:00N 44°36' W 087°18'1312.7 250 / 231016.4 -9.2 2.3
2018-Jan-02 23:00N 44°24' W 087°24'1312.7 230 / 241018.8 -9.8 2.7
2018-Jan-02 22:00N 44°12' W 087°30'4 4.3 220 / 221019.8 -10.0 1.2
2018-Jan-02 21:00N 44°12' W 087°24'6 6.0 230 / 191020.4 -10.4 1.9
2018-Jan-02 20:00N 44°18' W 087°24'0 0.0 240 / 191021.5 -10.4 2.0
2018-Jan-02 19:00N 44°18' W 087°24'6 6.0 220 / 191023.8 -11.3 2.9
2018-Jan-02 18:00N 44°12' W 087°24'7 7.4 260 / 201025.2 -12.0 1.9
2018-Jan-02 17:00N 44°06' W 087°30'1312.8 270 / 221027.6 -13.7 0.7
2018-Jan-02 16:00N 43°54' W 087°36'6 6.0 250 / 221029.2 -14.4 0.5
2018-Jan-02 15:00N 43°48' W 087°36'1212.0 260 / 181029.9 -14.4 1.0
2018-Jan-02 14:00N 43°36' W 087°36'7 7.4 260 / 191031.3 -14.9 1.2
2018-Jan-02 13:00N 43°30' W 087°42'1212.0 320 / 181032.0 -15.6 2.1
2018-Jan-02 12:00N 43°18' W 087°42'1212.0 260 / 161033.0 -14.8 3.3
2018-Jan-02 11:00N 43°06' W 087°42'6 6.0 280 / 171034.0 -15.9 3.1
2018-Jan-02 10:00N 43°00' W 087°42'1312.8 290 / 191034.0 -14.3 2.7
2018-Jan-02 09:00N 42°48' W 087°36'6 6.0 280 / 151035.0 -16.1 2.4
2018-Jan-02 08:00N 42°42' W 087°36'1212.0 270 / 191035.7 -16.3 2.5
2018-Jan-02 07:00N 42°30' W 087°36'1212.0 270 / 201035.7 -16.0 2.1
2018-Jan-02 06:00N 42°18' W 087°36'19 9.3 290 / 171036.7 -15.4 2.6
2018-Jan-02 04:00N 42°00' W 087°30'6 6.0 280 / 171038.1 -17.3 0.5
2018-Jan-02 03:00N 41°54' W 087°30'1312.8 260 / 141038.4 -17.4 0.2
2018-Jan-02 02:00N 41°42' W 087°24'0 0.0 260 / 141039.1 -19.0 0.2
2018-Jan-02 01:00N 41°42' W 087°24'0 0.0 280 / 111039.1 -18.8 1.4
2018-Jan-02 00:00N 41°42' W 087°24'0 0.0 240 / 111039.1 -18.3 1.1
2018-Jan-01 23:00N 41°42' W 087°24'0 0.0 230 / 61039.1 -17.4 1.2
2018-Jan-01 22:00N 41°42' W 087°24'0 0.0 250 / 111038.4 -16.2 1.1
2018-Jan-01 21:00N 41°42' W 087°24'0 0.0 250 / 121038.4 -16.0 1.1
2018-Jan-01 20:00N 41°42' W 087°24'0 0.0 230 / 61038.4 -15.2 1.1
2018-Jan-01 19:00N 41°42' W 087°24'0 0.0 250 / 111038.4 -16.3 1.1
2018-Jan-01 18:00N 41°42' W 087°24'0 0.0 290 / 101038.7 -17.2 1.1
2018-Jan-01 17:00N 41°42' W 087°24'0 0.0 260 / 131039.1 -18.5 1.2
2018-Jan-01 16:00N 41°42' W 087°24'0 0.0 260 / 131039.7 -19.7 1.3
2018-Jan-01 15:00N 41°42' W 087°24'0 0.0 240 / 121038.7 -21.0 1.4
2018-Jan-01 14:00N 41°42' W 087°24'0 0.0 250 / 121038.4 -21.4 1.5
2018-Jan-01 13:00N 41°42' W 087°24'0 0.0 250 / 141038.4 -20.7 1.6
2018-Jan-01 12:00N 41°42' W 087°24'0 0.0 250 / 141037.7 -20.3 1.7
2018-Jan-01 11:00N 41°42' W 087°24'0 0.0 270 / 111037.7 -19.8 1.8
2018-Jan-01 10:00N 41°42' W 087°24'0 0.0 280 / 141037.4 -18.8 1.9
2018-Jan-01 09:00N 41°42' W 087°24'0 0.0 260 / 141037.4 -18.1 1.9
2018-Jan-01 07:00N 41°42' W 087°24'0 0.0 260 / 151037.4 -17.0 2.0
2018-Jan-01 06:00N 41°42' W 087°24'0 0.0 250 / 121036.7 -16.4 2.1
2018-Jan-01 05:00N 41°42' W 087°24'0 0.0 270 / 151036.7 -15.5 2.2
2018-Jan-01 04:00N 41°42' W 087°24'0 0.0 290 / 141036.4 -14.6 2.3
2018-Jan-01 03:00N 41°42' W 087°24'0 0.0 280 / 121036.0 -13.8 2.0
2018-Jan-01 02:00N 41°42' W 087°24'0 0.0 300 / 181035.7 -13.1 2.0
2018-Jan-01 01:00N 41°42' W 087°24'0 0.0 310 / 161035.3 -11.9 1.7
2018-Jan-01 00:00N 41°42' W 087°24'0 0.0 310 / 131035.0 -11.1 1.8
2017-Dec-31 23:00N 41°42' W 087°24'7 7.5 280 / 161034.3 -10.4 0.4
2017-Dec-31 22:00N 41°48' W 087°30'1212.0 320 / 181034.0 -9.6 0.3
2017-Dec-31 21:00N 42°00' W 087°30'6012.0 320 / 181033.3 -8.0 2.3
2017-Dec-31 16:00N 43°00' W 087°36'1312.8 330 / 231033.3 5.4 -9.7 4.0
2017-Dec-31 15:00N 43°12' W 087°42'1212.0 330 / 221033.0 -11.0 4.0
2017-Dec-31 14:00N 43°24' W 087°42'1312.8 350 / 201032.6 -12.5 3.4
2017-Dec-31 13:00N 43°36' W 087°36'1312.8 340 / 191032.0 -11.9 2.2
2017-Dec-31 12:00N 43°48' W 087°30'1212.0 340 / 201032.0 -11.4 2.1
2017-Dec-31 11:00N 44°00' W 087°30'1312.8 340 / 211032.0 -12.6 2.4
2017-Dec-31 10:00N 44°12' W 087°24'1312.7 350 / 251030.9 -11.2 3.0
2017-Dec-31 09:00N 44°24' W 087°18'1312.7 350 / 221031.3 -11.1 4.5
2017-Dec-31 08:00N 44°36' W 087°12'1312.7 350 / 191031.6 -11.5 3.9
2017-Dec-31 07:00N 44°48' W 087°06'1514.7 350 / 211030.6 -11.5 4.2
2017-Dec-31 06:00N 45°00' W 086°54'1312.7 360 / 201029.9 -10.6 5.0
2017-Dec-31 05:00N 45°12' W 086°48'1010.4 340 / 191029.6 -10.0 4.0
2017-Dec-31 04:00N 45°18' W 086°36'1312.7 1028.910.8 -10.3 3.3
2017-Dec-31 03:00N 45°30' W 086°30'1514.6 010 / 151028.2 -10.2 4.5
2017-Dec-31 02:00N 45°42' W 086°18'8 8.4 1027.6 -10.4 5.2
2017-Dec-31 01:00N 45°42' W 086°06'1416.3 360 / 211026.9 -10.6 5.1
2017-Dec-31 00:09N 45°49' W 085°49'212.2
2017-Dec-31 00:01N 45°50' W 085°47'2112.0
2017-Dec-31 00:00N 45°48' W 085°48'815.8 030 / 221025.9 -11.5 2.9
2017-Dec-30 23:31N 45°52' W 085°39'611.6
2017-Dec-30 23:01N 45°54' W 085°31'135.0
2017-Dec-30 23:00N 45°54' W 085°30'610.4 350 / 151025.2 -12.9 0.5
2017-Dec-30 22:26N 45°53' W 085°22'410.5
2017-Dec-30 22:01N 45°53' W 085°15'2132.3
2017-Dec-30 22:00N 45°54' W 085°18'714.9 1023.5 -13.6 0.6
2017-Dec-30 21:31N 45°52' W 085°08'611.4
2017-Dec-30 21:01N 45°51' W 085°00'3181.1
2017-Dec-30 21:00N 45°54' W 085°00'714.4 020 / 81022.1 -11.6 0.6
2017-Dec-30 20:30N 45°50' W 084°51'611.5
2017-Dec-30 20:00N 45°49' W 084°44'1123.8
2017-Dec-30 20:00N 45°48' W 084°42'4 7.9 020 / 71021.8 -12.7 0.7
2017-Dec-30 19:31N 45°50' W 084°38'610.9
2017-Dec-30 19:00N 45°52' W 084°30'2382.3
2017-Dec-30 19:00N 45°54' W 084°30'612.7 050 / 71020.1 -12.5 1.4
2017-Dec-30 18:31N 45°53' W 084°21'612.4
2017-Dec-30 18:01N 45°53' W 084°13'143.0
2017-Dec-30 18:00N 45°54' W 084°12'1312.5 020 / 101019.8 -12.7 1.9
2017-Dec-30 17:00N 45°54' W 083°54'7 7.3 040 / 171019.8 -14.9 0.5
2017-Dec-30 16:00N 46°00' W 084°00'1212.0 050 / 91019.8 -16.4 0.3
2017-Dec-30 15:00N 46°12' W 084°00'8 8.3 300 / 21019.4 -17.1 0.2
2017-Dec-30 14:00N 46°12' W 084°12'6 6.0 010 / 61019.1 -17.7 0.1
2017-Dec-30 13:00N 46°18' W 084°12'7 7.3 350 / 61018.4 -17.4 0.2
2017-Dec-30 12:00N 46°24' W 084°18'6 6.0 340 / 31017.7 -18.6 0.2
2017-Dec-30 11:00N 46°30' W 084°18'4 4.1 060 / 31017.4 -17.6 0.2
2017-Dec-30 10:00N 46°30' W 084°24'0 0.0 060 / 31018.3 -17.2 0.2
2017-Dec-30 09:00N 46°30' W 084°24'0 0.0 080 / 61017.6 -16.5 0.2
2017-Dec-30 08:00N 46°30' W 084°24'0 0.0 100 / 31017.9 -16.5 0.2
2017-Dec-30 07:00N 46°30' W 084°24'4 4.1 080 / 31017.9 -16.8 0.6
2017-Dec-30 06:00N 46°30' W 084°30'6 6.0 050 / 41018.3 -15.8 0.6
2017-Dec-30 05:00N 46°24' W 084°30'1514.6 100 / 61018.6 -15.4 0.8
2017-Dec-30 04:00N 46°36' W 084°42'1010.2 150 / 71018.6 -10.7 1.0
2017-Dec-30 03:00N 46°42' W 084°54'1010.2 140 / 51019.0 -9.5 1.0
2017-Dec-30 02:00N 46°48' W 085°06'1212.3 210 / 91020.0 -10.4 1.7
2017-Dec-30 01:00N 46°48' W 085°24'1212.3 180 / 61020.7 -10.1 1.6
2017-Dec-30 00:00N 46°48' W 085°42'1212.3 230 / 101021.0 -10.3 2.5
2017-Dec-29 23:00N 46°48' W 086°00'1212.3 200 / 121021.0 -10.5 2.7
2017-Dec-29 22:00N 46°48' W 086°18'1413.7 190 / 111021.3 -9.8 3.7
2017-Dec-29 21:00N 46°42' W 086°36'1212.3 200 / 81021.0 -9.7 3.6
2017-Dec-29 20:00N 46°42' W 086°54'3912.9 220 / 71021.0 -9.4 3.6
2017-Dec-29 17:00N 47°12' W 087°30'1414.5 280 / 121022.0 -8.4 1.9
2017-Dec-29 16:00N 47°24' W 087°42'7 7.2 260 / 161022.4 -10.3 1.1
2017-Dec-29 15:00N 47°30' W 087°48'1413.5 210 / 91022.0 -10.4 2.6
2017-Dec-29 14:00N 47°36' W 088°06'1212.1 210 / 41022.0 -9.6 3.5
2017-Dec-29 13:00N 47°36' W 088°24'1212.1 170 / 61021.7 -10.1 3.6
2017-Dec-29 12:00N 47°36' W 088°42'1413.5 140 / 71021.3 -9.7 3.6
2017-Dec-29 11:00N 47°30' W 089°00'1212.2 080 / 81021.0 -9.1 3.6
2017-Dec-29 10:00N 47°30' W 089°18'1413.6 200 / 91022.0 -8.7 3.7
2017-Dec-29 09:00N 47°24' W 089°36'1212.2 280 / 71022.7 -8.5 3.6
2017-Dec-29 08:00N 47°24' W 089°54'1413.6 280 / 61022.7 -9.5 3.2
2017-Dec-29 07:00N 47°18' W 090°12'1212.2 280 / 151023.7 -9.9 2.9
2017-Dec-29 06:00N 47°18' W 090°30'1010.1 280 / 131024.4 -10.6 2.3
2017-Dec-29 05:00N 47°12' W 090°42'1212.2 250 / 111025.4 -11.5 2.9
2017-Dec-29 04:00N 47°12' W 091°00'1413.6 290 / 141025.7 -12.8 3.3
2017-Dec-29 03:00N 47°06' W 091°18'1413.7 310 / 151026.4 -13.6 2.9
2017-Dec-29 02:00N 47°00' W 091°36'2 9.8 290 / 121027.4 -15.1 3.1
2017-Dec-29 01:48N 47°00' W 091°39'1 3.9
2017-Dec-29 01:30N 47°01' W 091°40'1 2.9
2017-Dec-29 01:00N 47°00' W 091°42'1 3.6 290 / 51027.8 -17.1 2.1
2017-Dec-29 00:36N 47°01' W 091°40'0 0.0
2017-Dec-29 00:08N 47°01' W 091°40'1 9.8
2017-Dec-29 00:00N 47°00' W 091°42'0 0.0 300 / 41028.1 -15.7 2.1
2017-Dec-28 23:00N 47°00' W 091°42'0 0.0 270 / 51028.4 -15.5 2.2
2017-Dec-28 22:00N 47°00' W 091°42'0 0.0 300 / 51028.1 -14.8 2.0
2017-Dec-28 21:00N 47°00' W 091°42'0 0.0 280 / 61028.1 -14.6 1.9
2017-Dec-28 20:00N 47°00' W 091°42'0 0.0 300 / 31028.4 -14.6 1.8
2017-Dec-28 19:00N 47°00' W 091°42'0 0.0 050 / 41029.5 -13.9 1.8
2017-Dec-28 18:00N 47°00' W 091°42'0 0.0 210 / 71031.2 -14.3 1.9
2017-Dec-28 17:00N 47°00' W 091°42'1 7.2 220 / 91032.2 -14.2 2.0
2017-Dec-28 16:47N 47°01' W 091°40'0 0.0
2017-Dec-28 16:29N 47°01' W 091°40'1 2.9
2017-Dec-28 16:00N 47°00' W 091°42'126.7 230 / 101032.8 -13.9 2.0
2017-Dec-28 15:56N 47°01' W 091°40'0 0.0
2017-Dec-28 15:17N 47°01' W 091°40'1 4.8
2017-Dec-28 15:00N 47°00' W 091°42'1 9.4 210 / 101032.8 -14.6 2.4
2017-Dec-28 14:50N 47°01' W 091°40'0 0.0
2017-Dec-28 14:29N 47°01' W 091°40'1 2.9
2017-Dec-28 14:00N 47°00' W 091°42'1 9.4 210 / 81033.2 -15.1 2.4
2017-Dec-28 13:50N 47°01' W 091°40'0 0.0
2017-Dec-28 13:20N 47°01' W 091°40'1 4.2
2017-Dec-28 13:00N 47°00' W 091°42'114.2 220 / 91033.5 -14.8 2.6
2017-Dec-28 12:53N 47°01' W 091°40'0 0.0
2017-Dec-28 12:23N 47°01' W 091°40'1 3.6
2017-Dec-28 12:00N 47°00' W 091°42'1 2.4 040 / 11034.5 -16.6 2.6
2017-Dec-28 11:23N 47°01' W 091°40'1 3.6
2017-Dec-28 11:00N 47°00' W 091°42'114.2 340 / 61035.6 -17.5 2.7
2017-Dec-28 10:53N 47°01' W 091°40'0 0.0
2017-Dec-28 10:23N 47°01' W 091°40'1 3.6
2017-Dec-28 10:00N 47°00' W 091°42'113.8 330 / 71036.2 -17.4 2.6
2017-Dec-28 09:53N 47°01' W 091°40'0 0.0
2017-Dec-28 09:26N 47°01' W 091°40'1 3.2
2017-Dec-28 09:00N 47°00' W 091°42'126.9 340 / 81036.6 -18.3 2.6
2017-Dec-28 08:56N 47°01' W 091°40'0 0.0
2017-Dec-28 08:23N 47°01' W 091°40'1 3.7
2017-Dec-28 08:00N 47°00' W 091°42'127.0 330 / 91036.6 -18.8 2.6
2017-Dec-28 07:56N 47°01' W 091°40'0 0.0
2017-Dec-28 07:26N 47°01' W 091°40'1 3.2
2017-Dec-28 07:00N 47°00' W 091°42'127.1 330 / 91037.3 -18.6 2.6
2017-Dec-28 06:56N 47°01' W 091°40'0 0.0
2017-Dec-28 06:26N 47°01' W 091°40'1 3.2
2017-Dec-28 06:00N 47°00' W 091°42'1473.0 330 / 101037.6 -19.0 2.5
2017-Dec-28 05:59N 47°01' W 091°40'0 0.0
2017-Dec-28 05:29N 47°01' W 091°40'1 2.9
2017-Dec-28 05:00N 47°00' W 091°42'126.7 340 / 111038.3 -18.9 2.3
2017-Dec-28 04:56N 47°01' W 091°40'0 0.0
2017-Dec-28 04:29N 47°01' W 091°40'1 2.9
2017-Dec-28 04:00N 47°00' W 091°42'1 5.7 340 / 81037.6 -19.4 2.2
2017-Dec-28 03:44N 47°01' W 091°40'0 0.0
2017-Dec-28 03:29N 47°01' W 091°40'1 2.9
2017-Dec-28 03:00N 47°00' W 091°42'126.8 350 / 81037.9 -20.1 2.2
2017-Dec-28 02:56N 47°01' W 091°40'0 0.0
2017-Dec-28 02:29N 47°01' W 091°40'1 2.9
2017-Dec-28 02:00N 47°00' W 091°42'1325.2 340 / 81038.6 -20.2 2.1
2017-Dec-28 01:59N 47°01' W 091°40'0 0.0
2017-Dec-28 01:29N 47°01' W 091°40'1 2.9
2017-Dec-28 01:00N 47°00' W 091°42'1 5.7 330 / 91038.6 -20.3 2.1
2017-Dec-28 00:44N 47°01' W 091°40'0 0.0
2017-Dec-28 00:29N 47°01' W 091°40'1 2.9
2017-Dec-28 00:00N 47°00' W 091°42'1434.6 340 / 91038.6 -19.4 2.1
2017-Dec-27 23:59N 47°01' W 091°40'0 0.0
2017-Dec-27 23:17N 47°01' W 091°40'1 4.9
2017-Dec-27 23:00N 47°00' W 091°42'1 9.4 340 / 81038.6 -18.4 1.9
2017-Dec-27 22:50N 47°01' W 091°40'0 0.0
2017-Dec-27 22:20N 47°01' W 091°40'1 4.2
2017-Dec-27 22:00N 47°00' W 091°42'1 9.4 300 / 61038.9 -17.1 1.9
2017-Dec-27 21:50N 47°01' W 091°40'0 0.0
2017-Dec-27 21:23N 47°01' W 091°40'1 3.7
2017-Dec-27 21:00N 47°00' W 091°42'114.0 240 / 41038.9 -16.0 1.8
2017-Dec-27 20:53N 47°01' W 091°40'1 1.6
2017-Dec-27 20:00N 47°00' W 091°42'0 0.0 300 / 41038.9 -17.1 1.7
2017-Dec-27 19:00N 47°00' W 091°42'0 0.0 320 / 51039.3 -18.1 1.7
2017-Dec-27 18:00N 47°00' W 091°42'0 0.0 330 / 41040.0 -19.9 1.7
2017-Dec-27 17:00N 47°00' W 091°42'0 0.0 330 / 61040.6 -21.5 1.8
2017-Dec-27 16:00N 47°00' W 091°42'1 2.6 280 / 31041.0 -24.3 1.9
2017-Dec-27 15:26N 47°01' W 091°40'1 3.3
2017-Dec-27 15:00N 47°00' W 091°42'1 5.7 290 / 31040.6 -26.3 1.9
2017-Dec-27 14:44N 47°01' W 091°40'0 0.0
2017-Dec-27 14:29N 47°01' W 091°40'0 0.0
2017-Dec-27 13:32N 47°01' W 091°40'0 0.0
2017-Dec-27 12:26N 47°01' W 091°40'1 3.2
2017-Dec-27 12:00N 47°00' W 091°42'1 2.0 330 / 111038.3 -26.5 2.4
2017-Dec-27 11:17N 47°01' W 091°40'1 0.7
2017-Dec-27 10:29N 47°00' W 091°40'1 1.8
2017-Dec-27 10:00N 46°60' W 091°41'1 1.5
2017-Dec-27 09:25N 47°00' W 091°40'0 0.2
2017-Dec-27 08:55N 47°00' W 091°40'0 0.0
2017-Dec-27 08:25N 47°00' W 091°40'0 0.1
2017-Dec-27 07:55N 47°00' W 091°40'0 0.0
2017-Dec-27 07:28N 47°00' W 091°40'0 0.0
2017-Dec-27 06:58N 47°00' W 091°40'0 0.0
2017-Dec-27 06:28N 47°00' W 091°40'0 0.0
2017-Dec-27 05:55N 47°00' W 091°40'0 0.0
2017-Dec-27 05:28N 47°00' W 091°40'0 0.0
2017-Dec-27 04:58N 47°00' W 091°40'0 0.1
2017-Dec-27 04:25N 47°00' W 091°40'0 0.1
2017-Dec-27 03:58N 47°00' W 091°40'0 0.1
2017-Dec-27 03:28N 47°00' W 091°40'0 0.1
2017-Dec-27 02:58N 47°00' W 091°40'0 0.1
2017-Dec-27 02:28N 47°00' W 091°40'0 0.0
2017-Dec-27 01:58N 47°00' W 091°40'0 0.0
2017-Dec-27 01:28N 47°00' W 091°40'0 0.0
2017-Dec-27 00:34N 47°00' W 091°40'0 0.0
2017-Dec-27 00:16N 47°00' W 091°40'0 0.1
2017-Dec-26 23:58N 47°00' W 091°40'0 0.0
2017-Dec-26 23:16N 47°00' W 091°40'0 0.0
2017-Dec-26 22:49N 47°00' W 091°40'0 0.1
2017-Dec-26 22:22N 47°00' W 091°40'0 0.1
2017-Dec-26 21:52N 47°00' W 091°40'0 0.0
2017-Dec-26 21:22N 47°00' W 091°40'0 0.1
2017-Dec-26 20:52N 47°00' W 091°40'0 0.2
2017-Dec-26 20:30N 47°00' W 091°40'3 2.9
2017-Dec-26 19:22N 46°57' W 091°40'1 1.7
2017-Dec-26 19:00N 46°57' W 091°41'1 2.9
2017-Dec-26 18:30N 46°58' W 091°39'1 2.3
2017-Dec-26 17:56N 46°59' W 091°38'3 2.6
2017-Dec-26 16:55N 46°57' W 091°41'1 1.9
2017-Dec-26 16:31N 46°57' W 091°40'2 3.1
2017-Dec-26 15:58N 46°58' W 091°38'1 1.0
2017-Dec-26 15:20N 46°58' W 091°39'1 3.4
2017-Dec-26 15:00N 46°57' W 091°40'1 1.9
2017-Dec-26 14:30N 46°57' W 091°41'2 3.1
2017-Dec-26 14:00N 46°58' W 091°40'2 3.3
2017-Dec-26 13:28N 46°59' W 091°38'2 3.2
2017-Dec-26 13:00N 47°01' W 091°37'2 3.3
2017-Dec-26 12:30N 47°02' W 091°35'2 3.3
2017-Dec-26 12:00N 47°03' W 091°33'2 3.3
2017-Dec-26 11:30N 47°04' W 091°31'2 3.4
2017-Dec-26 11:00N 47°05' W 091°29'2 3.5
2017-Dec-26 10:30N 47°06' W 091°27'56 3.6
2017-Dec-25 19:00N 47°42' W 090°24'8 4.0 310 / 321020.3 -22.7 4.2
2017-Dec-25 17:00N 47°42' W 090°12'4 4.0 320 / 491019.3 -22.5 4.1
2017-Dec-25 16:00N 47°42' W 090°06'6 6.0 210 / 401019.6 -22.4 4.0
2017-Dec-25 15:00N 47°48' W 090°06'8 8.1 330 / 261019.0 -22.8 4.0
2017-Dec-25 14:00N 47°48' W 089°54'4 4.0 320 / 201017.6 -21.3 3.9
2017-Dec-25 13:00N 47°48' W 089°48'7 7.2 330 / 161016.6 -20.4 4.0
2017-Dec-25 12:00N 47°54' W 089°42'8 8.0 360 / 141016.3 -18.9 4.2
2017-Dec-25 11:00N 47°54' W 089°30'1010.0 340 / 121015.6 -18.5 4.3
2017-Dec-25 10:00N 47°48' W 089°18'8 8.1 010 / 151015.2 -17.7 4.2
2017-Dec-25 09:00N 47°48' W 089°06'1010.0 340 / 161014.9 -17.2 3.7
2017-Dec-25 08:00N 47°54' W 088°54'8 8.0 340 / 221014.9 -16.2 3.5
2017-Dec-25 07:00N 47°54' W 088°42'7 7.2 350 / 211013.5 -14.2 4.3
2017-Dec-25 06:00N 47°48' W 088°36'1010.1 340 / 201012.9 -13.2 4.2
2017-Dec-25 05:00N 47°42' W 088°24'1010.1 340 / 191012.5 -11.3 4.2
2017-Dec-25 04:00N 47°36' W 088°12'1413.5 1010.8 -7.8 4.3
2017-Dec-25 03:00N 47°30' W 087°54'1212.2 050 / 101012.2 -7.5 3.1
2017-Dec-25 02:00N 47°30' W 087°36'1413.6 060 / 81013.2 -7.9 2.6
2017-Dec-25 01:00N 47°24' W 087°18'1413.6 040 / 51013.9 -7.3 4.2
2017-Dec-25 00:00N 47°18' W 087°00'1212.2 020 / 61014.2 -7.3 4.4
2017-Dec-24 23:00N 47°18' W 086°42'1010.1 010 / 111014.2 -7.1 4.5
2017-Dec-24 22:00N 47°12' W 086°30'1413.6 320 / 111014.6 -6.6 4.7
2017-Dec-24 21:00N 47°06' W 086°12'   1014.6 -5.8 4.7

Dump ship's entire track history